Time;durP1;ratioP1;P1;durP2;ratioP2;P2;SDS_P1;SDS_P2;PMS_P1;PMS_P2;Temp;Humidity;BMP_temperature;BMP_pressure;BME280_temperature;BME280_humidity;BME280_pressure;Samples;Min_cycle;Max_cycle;Signal;HPM_P1;HPM_P2
2023/09/13 00:02:22;;;;;;;103.57;55.70;;;22.70;99.90;;;;;;5074493;28;20020;-79
2023/09/13 00:04:48;;;;;;;97.22;56.03;;;22.60;99.90;;;;;;5075565;28;20438;-79
2023/09/13 00:07:14;;;;;;;102.57;54.55;;;22.60;99.90;;;;;;5073031;28;20024;-79
2023/09/13 00:09:41;;;;;;;99.80;55.28;;;22.60;99.90;;;;;;5083331;28;20036;-78
2023/09/13 00:12:08;;;;;;;96.93;51.85;;;22.60;99.90;;;;;;5078987;28;20016;-79
2023/09/13 00:14:34;;;;;;;90.90;53.42;;;22.60;99.90;;;;;;5069628;28;20474;-79
2023/09/13 00:17:00;;;;;;;85.80;51.70;;;22.50;99.90;;;;;;5079641;28;20089;-79
2023/09/13 00:19:27;;;;;;;99.00;52.08;;;22.50;99.90;;;;;;5067867;28;20025;-80
2023/09/13 00:21:53;;;;;;;101.35;54.65;;;22.50;99.90;;;;;;5076317;28;20028;-79
2023/09/13 00:24:19;;;;;;;95.38;52.42;;;22.40;99.90;;;;;;5064787;28;20024;-78
2023/09/13 00:26:45;;;;;;;91.88;52.83;;;22.30;99.90;;;;;;5075230;28;20030;-79
2023/09/13 00:29:10;;;;;;;94.40;53.22;;;22.30;99.90;;;;;;5101075;28;20028;-79
2023/09/13 00:31:36;;;;;;;90.28;51.83;;;22.30;99.90;;;;;;5075543;28;20074;-79
2023/09/13 00:34:02;;;;;;;92.03;53.28;;;22.30;99.90;;;;;;5070132;28;20028;-79
2023/09/13 00:36:28;;;;;;;89.90;50.35;;;22.20;99.90;;;;;;5074696;28;20028;-79
2023/09/13 00:38:53;;;;;;;99.20;54.17;;;22.20;99.90;;;;;;5069563;28;20035;-78
2023/09/13 00:41:19;;;;;;;90.53;52.10;;;22.20;99.90;;;;;;5074828;28;20016;-78
2023/09/13 00:43:46;;;;;;;96.07;53.95;;;22.30;99.90;;;;;;5068669;28;20028;-78
2023/09/13 00:46:12;;;;;;;98.78;53.08;;;22.20;99.90;;;;;;5076136;28;20048;-78
2023/09/13 00:48:38;;;;;;;106.28;57.00;;;22.10;99.90;;;;;;5078966;28;20015;-78
2023/09/13 00:51:04;;;;;;;108.07;54.97;;;22.10;99.90;;;;;;5065164;28;20024;-78
2023/09/13 00:53:32;;;;;;;107.82;57.15;;;22.10;99.90;;;;;;5072658;28;20029;-79
2023/09/13 00:55:58;;;;;;;108.93;58.20;;;22.10;99.90;;;;;;5077915;28;20018;-79
2023/09/13 00:58:26;;;;;;;117.03;59.42;;;22.10;99.90;;;;;;5068580;28;20111;-79
2023/09/13 01:00:53;;;;;;;114.00;58.22;;;22.00;99.90;;;;;;5076472;28;20020;-79
2023/09/13 01:03:20;;;;;;;121.63;60.25;;;22.00;99.90;;;;;;5072526;28;20100;-79
2023/09/13 01:05:48;;;;;;;118.57;64.25;;;22.00;99.90;;;;;;5071582;28;20051;-78
2023/09/13 01:08:13;;;;;;;122.60;66.00;;;22.00;99.90;;;;;;5075736;28;20036;-79
2023/09/13 01:10:39;;;;;;;126.90;67.75;;;22.00;99.90;;;;;;5075575;28;20025;-79
2023/09/13 01:13:05;;;;;;;117.40;62.90;;;22.00;99.90;;;;;;5067719;28;20038;-79
2023/09/13 01:15:37;;;;;;;111.25;62.25;;;21.90;99.90;;;;;;5077327;28;20838;-78
2023/09/13 01:18:08;;;;;;;;;;;21.80;99.90;;;;;;5082167;28;20044;-78
2023/09/13 01:21:08;;;;;;;115.35;60.42;;;21.80;99.90;;;;;;5074824;28;20349;-80
2023/09/13 01:23:45;;;;;;;118.22;65.20;;;21.80;99.90;;;;;;5067855;28;20020;-79
2023/09/13 01:26:29;;;;;;;121.22;64.30;;;21.80;99.90;;;;;;5077415;28;20048;-79
2023/09/13 01:28:56;;;;;;;118.13;64.40;;;21.70;99.90;;;;;;5068812;28;20353;-79
2023/09/13 01:31:24;;;;;;;118.13;62.60;;;21.70;99.90;;;;;;5076183;28;20036;-78
2023/09/13 01:33:50;;;;;;;124.88;66.28;;;21.50;99.90;;;;;;5079527;28;20017;-78
2023/09/13 01:36:16;;;;;;;118.13;62.92;;;21.60;99.90;;;;;;5065891;28;20477;-78
2023/09/13 01:38:41;;;;;;;120.18;66.53;;;21.70;99.90;;;;;;5074380;28;20024;-79
2023/09/13 01:41:30;;;;;;;130.18;64.80;;;21.70;99.90;;;;;;5066021;28;20054;-79
2023/09/13 01:43:56;;;;;;;125.22;63.83;;;21.70;99.90;;;;;;5070143;28;20103;-78
2023/09/13 01:46:27;;;;;;;124.07;62.72;;;21.70;99.90;;;;;;5069197;28;20024;-79
2023/09/13 01:48:57;;;;;;;145.27;69.53;;;21.60;99.90;;;;;;5069943;28;20028;-78
2023/09/13 01:51:27;;;;;;;133.13;68.05;;;21.70;99.90;;;;;;5072405;28;20024;-79
2023/09/13 01:53:56;;;;;;;121.38;60.75;;;21.70;99.90;;;;;;5079226;28;20016;-78
2023/09/13 01:56:22;;;;;;;115.53;60.67;;;21.80;99.90;;;;;;5068685;28;20127;-78
2023/09/13 01:58:49;;;;;;;126.20;62.25;;;21.80;99.90;;;;;;5066818;28;20021;-78
2023/09/13 02:01:15;;;;;;;129.73;65.88;;;21.80;99.90;;;;;;5066628;28;20021;-78
2023/09/13 02:03:42;;;;;;;113.50;59.83;;;21.80;99.90;;;;;;5079129;28;20532;-78
2023/09/13 02:06:08;;;;;;;124.65;63.95;;;21.70;99.90;;;;;;5069832;28;20012;-79
2023/09/13 02:08:34;;;;;;;127.97;61.55;;;21.60;99.90;;;;;;5074357;28;20024;-79
2023/09/13 02:11:00;;;;;;;123.05;63.55;;;21.60;99.90;;;;;;5070909;28;20033;-78
2023/09/13 02:13:25;;;;;;;118.82;59.22;;;21.70;99.90;;;;;;5077724;28;20683;-78
2023/09/13 02:15:51;;;;;;;106.78;58.33;;;21.70;99.90;;;;;;5071972;28;20108;-78
2023/09/13 02:18:17;;;;;;;114.35;60.30;;;21.70;99.90;;;;;;5068078;28;20033;-79
2023/09/13 02:20:43;;;;;;;119.88;61.88;;;21.60;99.90;;;;;;5080365;28;20052;-78
2023/09/13 02:23:09;;;;;;;115.68;62.47;;;21.60;99.90;;;;;;5070089;28;20095;-78
2023/09/13 02:25:36;;;;;;;124.93;61.88;;;21.60;99.90;;;;;;5077011;28;20112;-78
2023/09/13 02:28:03;;;;;;;116.68;60.75;;;21.60;99.90;;;;;;5068855;28;20073;-78
2023/09/13 02:30:30;;;;;;;132.82;62.67;;;21.70;99.90;;;;;;5078101;28;20020;-78
2023/09/13 02:32:55;;;;;;;120.38;59.17;;;21.70;99.90;;;;;;5070031;28;20079;-78
2023/09/13 02:35:21;;;;;;;119.70;60.47;;;21.70;99.90;;;;;;5074670;28;20033;-78
2023/09/13 02:37:48;;;;;;;109.90;57.50;;;21.70;99.90;;;;;;5066871;28;20453;-78
2023/09/13 02:40:14;;;;;;;118.05;57.42;;;21.60;99.90;;;;;;5076770;28;20141;-79
2023/09/13 02:42:39;;;;;;;105.20;58.13;;;21.50;99.90;;;;;;5070973;28;20106;-78
2023/09/13 02:45:06;;;;;;;114.93;56.30;;;21.50;99.90;;;;;;5073269;28;20412;-78
2023/09/13 02:47:31;;;;;;;107.80;56.80;;;21.60;99.90;;;;;;5068455;28;20028;-78
2023/09/13 02:49:57;;;;;;;112.72;59.08;;;21.50;99.90;;;;;;5074729;28;20020;-78
2023/09/13 02:52:30;;;;;;;111.75;58.85;;;21.50;99.90;;;;;;5080732;28;20017;-78
2023/09/13 02:54:57;;;;;;;119.07;59.42;;;21.40;99.90;;;;;;5072872;28;20024;-78
2023/09/13 02:57:23;;;;;;;119.68;61.13;;;21.50;99.90;;;;;;5070950;28;20115;-78
2023/09/13 02:59:49;;;;;;;106.05;55.35;;;21.40;99.90;;;;;;5078134;28;20526;-78
2023/09/13 03:02:14;;;;;;;109.47;55.22;;;21.50;99.90;;;;;;5088862;28;20025;-78
2023/09/13 03:04:40;;;;;;;94.57;51.90;;;21.50;99.90;;;;;;5075821;28;20021;-78
2023/09/13 03:07:06;;;;;;;113.10;57.45;;;21.50;99.90;;;;;;5084832;28;20044;-78
2023/09/13 03:09:32;;;;;;;99.20;56.60;;;21.50;99.90;;;;;;5079872;28;20075;-78
2023/09/13 03:11:58;;;;;;;105.10;55.28;;;21.50;99.90;;;;;;5070502;28;20031;-78
2023/09/13 03:14:24;;;;;;;103.47;54.28;;;21.50;99.90;;;;;;5078231;28;20384;-78
2023/09/13 03:16:49;;;;;;;101.75;55.15;;;21.40;99.90;;;;;;5073316;28;20393;-78
2023/09/13 03:19:15;;;;;;;98.00;51.03;;;21.40;99.90;;;;;;5074847;28;20020;-78
2023/09/13 03:21:44;;;;;;;90.47;50.15;;;21.50;99.90;;;;;;5079808;28;20389;-78
2023/09/13 03:24:10;;;;;;;97.13;50.08;;;21.40;99.90;;;;;;5072901;28;20465;-78
2023/09/13 03:26:35;;;;;;;102.80;52.63;;;21.40;99.90;;;;;;5078415;28;20023;-77
2023/09/13 03:29:02;;;;;;;106.70;56.88;;;21.40;99.90;;;;;;5077233;28;20463;-78
2023/09/13 03:31:27;;;;;;;114.80;55.72;;;21.50;99.90;;;;;;5082504;28;20032;-78
2023/09/13 03:33:55;;;;;;;109.78;55.75;;;21.40;99.90;;;;;;5072007;28;20509;-77
2023/09/13 03:36:21;;;;;;;105.07;54.30;;;21.40;99.90;;;;;;5078540;28;20031;-78
2023/09/13 03:38:47;;;;;;;99.70;50.55;;;21.40;99.90;;;;;;5076297;28;20119;-78
2023/09/13 03:41:18;;;;;;;102.93;52.80;;;21.40;99.90;;;;;;5077167;28;20096;-78
2023/09/13 03:43:44;;;;;;;96.35;51.30;;;21.40;99.90;;;;;;5070434;28;20033;-77
2023/09/13 03:46:10;;;;;;;86.75;46.72;;;21.40;99.90;;;;;;5075142;28;20358;-77
2023/09/13 03:48:37;;;;;;;89.18;48.70;;;21.40;99.90;;;;;;5069719;28;20039;-78
2023/09/13 03:51:04;;;;;;;93.00;49.92;;;21.40;99.90;;;;;;5078531;28;20448;-78
2023/09/13 03:53:30;;;;;;;96.20;48.25;;;21.30;99.90;;;;;;5077909;28;20025;-78
2023/09/13 03:55:57;;;;;;;88.85;46.88;;;21.30;99.90;;;;;;5075786;28;20025;-78
2023/09/13 03:58:23;;;;;;;91.22;49.58;;;21.30;99.90;;;;;;5078364;28;20077;-78
2023/09/13 04:00:49;;;;;;;96.05;50.42;;;21.30;99.90;;;;;;5076991;28;20039;-77
2023/09/13 04:03:19;;;;;;;122.20;51.40;;;21.30;99.90;;;;;;5072810;28;20056;-77
2023/09/13 04:05:45;;;;;;;108.85;51.78;;;21.20;99.90;;;;;;5072837;28;20431;-77
2023/09/13 04:08:11;;;;;;;114.55;54.75;;;21.30;99.90;;;;;;5080140;28;20028;-77
2023/09/13 04:10:37;;;;;;;94.30;50.67;;;21.30;99.90;;;;;;5069646;28;20032;-78
2023/09/13 04:13:03;;;;;;;93.75;48.00;;;21.30;99.90;;;;;;5081988;28;20485;-77
2023/09/13 04:15:29;;;;;;;110.63;51.67;;;21.30;99.90;;;;;;5078277;28;20025;-77
2023/09/13 04:17:55;;;;;;;101.65;51.78;;;21.40;99.90;;;;;;5077013;28;20119;-77
2023/09/13 04:20:21;;;;;;;94.93;50.42;;;21.30;99.90;;;;;;5077353;28;20051;-78
2023/09/13 04:22:47;;;;;;;108.45;52.95;;;21.40;99.90;;;;;;5070540;28;20096;-77
2023/09/13 04:25:13;;;;;;;106.70;52.35;;;21.40;99.90;;;;;;5081884;28;20104;-78
2023/09/13 04:27:45;;;;;;;93.93;48.97;;;21.40;99.90;;;;;;5068842;28;20103;-77
2023/09/13 04:30:12;;;;;;;98.35;50.20;;;21.40;99.90;;;;;;5070099;28;20023;-78
2023/09/13 04:32:38;;;;;;;98.28;51.05;;;21.30;99.90;;;;;;5078644;28;20052;-77
2023/09/13 04:35:04;;;;;;;101.90;50.15;;;21.30;99.90;;;;;;5079560;28;20060;-77
2023/09/13 04:37:30;;;;;;;102.82;52.03;;;21.30;99.90;;;;;;5078139;28;20024;-78
2023/09/13 04:39:57;;;;;;;98.93;52.30;;;21.20;99.90;;;;;;5073726;28;20020;-77
2023/09/13 04:42:23;;;;;;;96.68;48.85;;;21.10;99.90;;;;;;5068609;28;20055;-77
2023/09/13 04:44:48;;;;;;;110.00;51.28;;;21.10;99.90;;;;;;5083378;28;20056;-77
2023/09/13 04:47:14;;;;;;;107.72;49.40;;;20.90;99.90;;;;;;5073691;28;20348;-78
2023/09/13 04:49:40;;;;;;;113.20;49.72;;;20.80;99.90;;;;;;5067397;28;20039;-77
2023/09/13 04:52:09;;;;;;;114.35;51.33;;;20.80;99.90;;;;;;5079841;28;20052;-77
2023/09/13 04:54:36;;;;;;;105.05;49.58;;;20.90;99.90;;;;;;5083412;28;20079;-77
2023/09/13 04:57:05;;;;;;;103.45;49.10;;;20.90;99.90;;;;;;5075382;28;20037;-77
2023/09/13 04:59:57;;;;;;;106.85;51.83;;;20.90;99.90;;;;;;5078920;28;20118;-78
2023/09/13 05:02:23;;;;;;;111.72;51.13;;;20.80;99.90;;;;;;5069203;28;20574;-78
2023/09/13 05:04:49;;;;;;;104.97;48.72;;;20.90;99.90;;;;;;5079866;28;20048;-77
2023/09/13 05:07:14;;;;;;;106.82;51.53;;;20.90;99.90;;;;;;5063450;28;20028;-77
2023/09/13 05:09:40;;;;;;;104.57;50.08;;;20.90;99.90;;;;;;5073733;28;20077;-77
2023/09/13 05:12:06;;;;;;;102.40;51.72;;;21.00;99.90;;;;;;5073294;28;20059;-77
2023/09/13 05:14:33;;;;;;;102.40;51.17;;;21.00;99.90;;;;;;5077020;28;20024;-77
2023/09/13 05:16:59;;;;;;;105.10;51.13;;;21.00;99.90;;;;;;5074734;28;20055;-77
2023/09/13 05:19:25;;;;;;;104.78;49.90;;;21.00;99.90;;;;;;5071313;28;20024;-77
2023/09/13 05:21:51;;;;;;;107.43;51.50;;;21.00;99.90;;;;;;5076496;28;20036;-77
2023/09/13 05:24:17;;;;;;;124.47;52.28;;;21.10;99.90;;;;;;5074950;28;20025;-77
2023/09/13 05:26:43;;;;;;;117.03;50.92;;;21.00;99.90;;;;;;5084653;28;20039;-77
2023/09/13 05:29:09;;;;;;;122.78;54.05;;;21.10;99.90;;;;;;5070125;28;20389;-76
2023/09/13 05:31:34;;;;;;;114.22;52.38;;;21.10;99.90;;;;;;5068335;28;20499;-77
2023/09/13 05:34:00;;;;;;;114.18;50.53;;;21.00;99.90;;;;;;5074264;28;20024;-77
2023/09/13 05:36:26;;;;;;;128.35;53.42;;;21.00;99.90;;;;;;5068800;28;20497;-76
2023/09/13 05:38:51;;;;;;;118.22;52.33;;;21.10;99.90;;;;;;5070158;28;20128;-77
2023/09/13 05:41:18;;;;;;;114.20;55.10;;;21.10;99.90;;;;;;5077343;28;20024;-76
2023/09/13 05:43:44;;;;;;;117.40;53.45;;;21.10;99.90;;;;;;5069055;28;20507;-76
2023/09/13 05:46:10;;;;;;;114.05;51.55;;;21.10;99.90;;;;;;5072054;28;20099;-77
2023/09/13 05:48:36;;;;;;;116.38;51.85;;;21.10;99.90;;;;;;5071304;28;20104;-76
2023/09/13 05:51:03;;;;;;;105.28;50.75;;;21.00;99.90;;;;;;5072731;28;20073;-76
2023/09/13 05:53:30;;;;;;;107.13;51.55;;;21.10;99.90;;;;;;5078046;28;20016;-76
2023/09/13 05:55:57;;;;;;;104.60;49.22;;;21.00;99.90;;;;;;5070007;28;20044;-77
2023/09/13 05:58:27;;;;;;;136.98;52.47;;;21.10;99.90;;;;;;5081161;28;20027;-76
2023/09/13 06:00:59;;;;;;;98.47;49.10;;;21.00;99.90;;;;;;5072706;28;20025;-75
2023/09/13 06:03:26;;;;;;;100.13;49.08;;;21.00;99.90;;;;;;5071592;28;20020;-76
2023/09/13 06:05:52;;;;;;;106.93;48.13;;;21.00;99.90;;;;;;5073944;28;20473;-76
2023/09/13 06:08:18;;;;;;;107.20;51.30;;;21.00;99.90;;;;;;5068972;28;20029;-76
2023/09/13 06:10:48;;;;;;;99.63;47.85;;;21.10;99.90;;;;;;5079318;28;20056;-76
2023/09/13 06:13:15;;;;;;;103.03;48.33;;;21.00;99.90;;;;;;5065090;28;20024;-76
2023/09/13 06:15:41;;;;;;;93.75;45.38;;;21.00;99.90;;;;;;5070853;28;20028;-76
2023/09/13 06:18:07;;;;;;;103.22;45.88;;;21.00;99.90;;;;;;5062012;28;20040;-76
2023/09/13 06:20:33;;;;;;;99.88;45.45;;;21.10;99.90;;;;;;5076539;28;20021;-76
2023/09/13 06:22:59;;;;;;;95.78;43.28;;;21.00;99.90;;;;;;5078176;28;20449;-76
2023/09/13 06:25:24;;;;;;;92.22;44.60;;;21.00;99.90;;;;;;5066723;28;20592;-77
2023/09/13 06:27:50;;;;;;;104.43;46.92;;;21.00;99.90;;;;;;5067348;28;20021;-76
2023/09/13 06:30:16;;;;;;;91.60;42.80;;;21.10;99.90;;;;;;5070749;28;20028;-76
2023/09/13 06:32:43;;;;;;;84.95;43.00;;;21.10;99.90;;;;;;5067379;28;20454;-76
2023/09/13 06:35:12;;;;;;;88.82;41.72;;;21.00;99.90;;;;;;5080375;28;20020;-75
2023/09/13 06:37:39;;;;;;;82.65;41.63;;;21.10;99.90;;;;;;5066828;28;20055;-75
2023/09/13 06:40:06;;;;;;;87.63;43.38;;;21.00;99.90;;;;;;5075352;28;20055;-76
2023/09/13 06:42:31;;;;;;;84.25;41.60;;;21.10;99.90;;;;;;5077180;28;20046;-75
2023/09/13 06:44:59;;;;;;;78.32;40.30;;;21.00;99.90;;;;;;5067964;28;20024;-75
2023/09/13 06:47:25;;;;;;;87.38;43.05;;;21.10;99.90;;;;;;5078713;28;20075;-75
2023/09/13 06:49:51;;;;;;;79.30;39.00;;;21.00;99.90;;;;;;5070725;28;20017;-75
2023/09/13 06:52:17;;;;;;;79.47;40.75;;;21.00;99.90;;;;;;5066680;28;20522;-75
2023/09/13 06:54:42;;;;;;;91.07;42.95;;;21.10;99.90;;;;;;5070470;28;20369;-75
2023/09/13 06:57:08;;;;;;;88.82;43.10;;;21.20;99.90;;;;;;5064890;28;20135;-75
2023/09/13 06:59:35;;;;;;;77.40;41.47;;;21.20;99.90;;;;;;5075188;28;20020;-75
2023/09/13 07:02:00;;;;;;;84.60;41.50;;;21.20;99.90;;;;;;5065787;28;20063;-75
2023/09/13 07:04:26;;;;;;;84.05;43.05;;;21.10;99.90;;;;;;5075857;28;20044;-75
2023/09/13 07:06:52;;;;;;;79.90;40.38;;;21.20;99.90;;;;;;5078022;28;20115;-75
2023/09/13 07:09:17;;;;;;;81.43;41.40;;;21.20;99.90;;;;;;5072229;28;20036;-76
2023/09/13 07:11:43;;;;;;;79.63;40.17;;;21.10;99.90;;;;;;5079295;28;20477;-74
2023/09/13 07:14:09;;;;;;;76.85;39.80;;;21.10;99.90;;;;;;5065902;28;20420;-75
2023/09/13 07:16:35;;;;;;;69.28;38.97;;;21.00;99.90;;;;;;5067514;28;20478;-76
2023/09/13 07:19:02;;;;;;;74.63;38.95;;;21.10;99.90;;;;;;5069908;28;20021;-77
2023/09/13 07:21:29;;;;;;;66.90;37.45;;;21.10;99.90;;;;;;5073744;28;20028;-76
2023/09/13 07:23:55;;;;;;;68.28;38.50;;;21.20;99.90;;;;;;5075126;28;20108;-74
2023/09/13 07:26:20;;;;;;;74.35;39.05;;;21.20;99.90;;;;;;5067169;28;20128;-75
2023/09/13 07:28:46;;;;;;;69.57;37.45;;;21.30;99.90;;;;;;5089311;28;20032;-76
2023/09/13 07:31:12;;;;;;;64.03;36.08;;;21.30;99.90;;;;;;5073106;28;20029;-74
2023/09/13 07:33:38;;;;;;;71.88;38.55;;;21.30;99.90;;;;;;5074172;28;20108;-75
2023/09/13 07:36:04;;;;;;;70.22;38.17;;;21.30;99.90;;;;;;5077152;28;20100;-75
2023/09/13 07:38:30;;;;;;;75.75;39.45;;;21.30;99.90;;;;;;5065915;28;20543;-75
2023/09/13 07:40:56;;;;;;;65.32;35.72;;;21.40;99.90;;;;;;5075721;28;20028;-76
2023/09/13 07:43:21;;;;;;;73.30;39.17;;;21.40;99.90;;;;;;5080205;28;20350;-75
2023/09/13 07:45:47;;;;;;;76.43;41.22;;;21.40;99.90;;;;;;5071494;28;20029;-75
2023/09/13 07:48:13;;;;;;;80.05;40.83;;;21.50;99.90;;;;;;5074667;28;20013;-75
2023/09/13 07:50:44;;;;;;;78.80;40.35;;;21.60;99.90;;;;;;5075141;28;20035;-73
2023/09/13 07:53:11;;;;;;;75.75;40.05;;;21.50;99.90;;;;;;5071947;28;20028;-75
2023/09/13 07:55:37;;;;;;;69.50;38.13;;;21.50;99.90;;;;;;5070510;28;20032;-72
2023/09/13 07:58:04;;;;;;;65.68;36.50;;;21.40;99.90;;;;;;5073850;28;20381;-73
2023/09/13 08:00:30;;;;;;;66.82;40.28;;;21.50;99.90;;;;;;5076389;28;20035;-73
2023/09/13 08:02:57;;;;;;;78.53;39.88;;;21.50;99.90;;;;;;5073704;28;20029;-73
2023/09/13 08:05:23;;;;;;;70.93;40.92;;;21.50;99.90;;;;;;5070466;28;20082;-72
2023/09/13 08:07:48;;;;;;;72.60;38.33;;;21.60;99.90;;;;;;5080135;28;20493;-72
2023/09/13 08:10:14;;;;;;;69.82;39.28;;;21.60;99.90;;;;;;5071298;28;20515;-72
2023/09/13 08:12:41;;;;;;;75.53;38.95;;;21.70;99.90;;;;;;5081517;28;20381;-72
2023/09/13 08:15:07;;;;;;;75.95;38.97;;;21.70;99.90;;;;;;5068914;28;20093;-72
2023/09/13 08:17:33;;;;;;;63.95;36.95;;;21.70;99.90;;;;;;5068970;28;20057;-72
2023/09/13 08:20:07;;;;;;;65.13;38.50;;;21.70;99.90;;;;;;5077845;28;20025;-72
2023/09/13 08:22:32;;;;;;;66.22;38.58;;;21.60;99.90;;;;;;5072962;28;20027;-72
2023/09/13 08:24:58;;;;;;;69.07;39.13;;;21.60;99.90;;;;;;5071475;28;20021;-72
2023/09/13 08:27:24;;;;;;;66.85;39.85;;;21.60;99.90;;;;;;5077208;28;20477;-72
2023/09/13 08:29:49;;;;;;;68.28;40.03;;;21.50;99.90;;;;;;5077560;28;20032;-72
2023/09/13 08:32:15;;;;;;;71.80;41.58;;;21.60;99.90;;;;;;5074058;28;20381;-72
2023/09/13 08:34:41;;;;;;;72.07;40.97;;;21.60;99.90;;;;;;5072802;28;20408;-72
2023/09/13 08:37:06;;;;;;;66.68;39.53;;;21.50;99.90;;;;;;5072040;28;20032;-72
2023/09/13 08:39:32;;;;;;;73.25;39.92;;;21.60;99.90;;;;;;5083205;28;20032;-72
2023/09/13 08:41:58;;;;;;;69.78;39.25;;;21.70;99.90;;;;;;5072629;28;20070;-72
2023/09/13 08:44:26;;;;;;;71.55;40.78;;;21.70;99.90;;;;;;5075798;28;20441;-72
2023/09/13 08:46:56;;;;;;;65.28;40.45;;;21.70;99.90;;;;;;5081704;28;20030;-72
2023/09/13 08:49:23;;;;;;;65.55;40.20;;;21.60;99.90;;;;;;5070408;28;20464;-71
2023/09/13 08:51:51;;;;;;;62.97;38.88;;;21.70;99.90;;;;;;5067904;28;20894;-72
2023/09/13 08:54:17;;;;;;;65.13;39.13;;;21.60;99.90;;;;;;5074427;28;20016;-72
2023/09/13 08:56:43;;;;;;;62.47;39.03;;;21.60;99.90;;;;;;5072506;28;20029;-72
2023/09/13 08:59:10;;;;;;;70.47;39.20;;;21.70;99.90;;;;;;5072370;28;20377;-74
2023/09/13 09:01:37;;;;;;;59.38;36.42;;;21.70;99.90;;;;;;5071915;28;20089;-74
2023/09/13 09:04:04;;;;;;;68.65;40.22;;;21.70;99.90;;;;;;5067559;28;20896;-74
2023/09/13 09:06:33;;;;;;;65.80;39.00;;;21.70;99.90;;;;;;5067756;28;20021;-73
2023/09/13 09:09:00;;;;;;;59.88;34.15;;;21.60;99.90;;;;;;5073566;28;20040;-74
2023/09/13 09:11:28;;;;;;;33.85;21.08;;;21.50;99.90;;;;;;5074212;28;20035;-74
2023/09/13 09:13:57;;;;;;;21.75;14.70;;;21.30;99.90;;;;;;5076553;28;20027;-74
2023/09/13 09:16:26;;;;;;;20.98;13.95;;;21.20;99.90;;;;;;5068001;28;20590;-74
2023/09/13 09:18:54;;;;;;;15.32;10.60;;;21.00;99.90;;;;;;5069173;28;20028;-75
2023/09/13 09:21:20;;;;;;;10.57;8.70;;;21.00;99.90;;;;;;5073432;28;20016;-75
2023/09/13 09:23:47;;;;;;;10.43;7.50;;;21.00;99.90;;;;;;5069752;28;20047;-75
2023/09/13 09:26:12;;;;;;;8.40;6.15;;;21.00;99.90;;;;;;5069440;28;20029;-75
2023/09/13 09:28:38;;;;;;;9.05;5.93;;;21.00;99.90;;;;;;5077167;28;20162;-74
2023/09/13 09:31:05;;;;;;;8.48;6.35;;;21.00;99.90;;;;;;5066729;28;20468;-74
2023/09/13 09:33:32;;;;;;;6.28;4.82;;;21.00;99.90;;;;;;5073359;28;20063;-76
2023/09/13 09:36:01;;;;;;;4.97;3.30;;;21.00;99.90;;;;;;5070375;28;20496;-75
2023/09/13 09:38:30;;;;;;;3.85;2.97;;;21.00;99.90;;;;;;5071678;28;20043;-74
2023/09/13 09:41:06;;;;;;;4.72;3.05;;;21.00;99.90;;;;;;5072230;28;20032;-74
2023/09/13 09:43:33;;;;;;;4.03;2.58;;;20.90;99.90;;;;;;5071492;28;20074;-74
2023/09/13 09:45:59;;;;;;;3.95;2.80;;;20.90;99.90;;;;;;5081313;28;20040;-73
2023/09/13 09:48:26;;;;;;;4.63;2.25;;;20.80;99.90;;;;;;5065157;28;20036;-75
2023/09/13 09:50:53;;;;;;;4.72;1.58;;;20.80;99.90;;;;;;5075624;28;20111;-76
2023/09/13 09:53:24;;;;;;;5.40;1.90;;;20.80;99.90;;;;;;5065248;28;20420;-74
2023/09/13 09:55:52;;;;;;;2.97;1.98;;;20.70;99.90;;;;;;5077195;28;20016;-73
2023/09/13 09:58:18;;;;;;;1.95;1.75;;;20.70;99.90;;;;;;5068853;28;20036;-74
2023/09/13 10:00:46;;;;;;;3.70;1.70;;;20.70;99.90;;;;;;5069781;28;20435;-74
2023/09/13 10:03:17;;;;;;;3.55;1.70;;;20.80;99.90;;;;;;5081884;28;20027;-74
2023/09/13 10:06:13;;;;;;;4.03;1.20;;;20.70;99.90;;;;;;5069887;28;20040;-73
2023/09/13 10:08:40;;;;;;;2.88;2.13;;;20.80;99.90;;;;;;5073357;28;20032;-74
2023/09/13 10:11:14;;;;;;;1.90;1.58;;;20.70;99.90;;;;;;5070731;28;20025;-74
2023/09/13 10:13:41;;;;;;;1.90;1.58;;;20.70;99.90;;;;;;5072943;28;20051;-73
2023/09/13 10:16:13;;;;;;;4.63;1.58;;;20.70;99.90;;;;;;5073802;28;20381;-73
2023/09/13 10:18:48;;;;;;;3.25;1.58;;;20.70;99.90;;;;;;5064998;28;20024;-74
2023/09/13 10:21:30;;;;;;;4.05;2.00;;;20.70;99.90;;;;;;5070332;28;20058;-74
2023/09/13 10:24:07;;;;;;;1.65;1.10;;;20.70;99.90;;;;;;5073451;28;20052;-73
2023/09/13 10:26:33;;;;;;;2.28;1.35;;;20.60;99.90;;;;;;5066870;28;20025;-71
2023/09/13 10:29:14;;;;;;;2.08;1.42;;;20.50;99.90;;;;;;5082353;28;20024;-72
2023/09/13 10:31:44;;;;;;;1.80;1.67;;;20.50;99.90;;;;;;5073551;28;20021;-72
2023/09/13 10:34:26;;;;;;;2.47;1.08;;;20.60;99.90;;;;;;5072135;28;20423;-73
2023/09/13 10:37:26;;;;;;;3.17;1.63;;;20.60;99.90;;;;;;5070994;28;20036;-72
2023/09/13 10:39:59;;;;;;;3.00;1.45;;;20.60;99.90;;;;;;5073866;28;20111;-72
2023/09/13 10:42:25;;;;;;;1.15;1.05;;;20.60;99.90;;;;;;5069206;28;20020;-72
2023/09/13 10:44:53;;;;;;;2.10;1.73;;;20.70;99.90;;;;;;5077625;28;20021;-72
2023/09/13 10:47:19;;;;;;;3.72;1.48;;;20.70;99.90;;;;;;5068220;28;20529;-72
2023/09/13 10:49:48;;;;;;;1.70;1.20;;;20.70;99.90;;;;;;5075652;28;20028;-72
2023/09/13 10:52:15;;;;;;;1.88;1.23;;;20.80;99.90;;;;;;5068625;28;20074;-72
2023/09/13 10:54:43;;;;;;;3.38;1.50;;;20.90;99.90;;;;;;5079583;28;20020;-72
2023/09/13 10:57:11;;;;;;;2.88;1.27;;;20.90;99.90;;;;;;5065689;28;20119;-72
2023/09/13 10:59:38;;;;;;;2.53;1.48;;;20.80;99.90;;;;;;5074992;28;20091;-72
2023/09/13 11:02:05;;;;;;;2.80;1.48;;;20.80;99.90;;;;;;5069772;28;20013;-72
2023/09/13 11:04:31;;;;;;;1.20;1.10;;;20.90;99.90;;;;;;5068716;28;20035;-74
2023/09/13 11:06:58;;;;;;;2.60;1.30;;;20.90;99.90;;;;;;5074129;28;20024;-71
2023/09/13 11:09:30;;;;;;;3.83;1.48;;;20.90;99.90;;;;;;5073207;28;20020;-72
2023/09/13 11:11:57;;;;;;;2.95;1.20;;;20.90;99.90;;;;;;5070154;28;20056;-71
2023/09/13 11:14:27;;;;;;;2.10;1.35;;;20.90;99.90;;;;;;5067198;28;20020;-71
2023/09/13 11:16:54;;;;;;;1.83;1.55;;;20.90;99.90;;;;;;5068405;28;20554;-72
2023/09/13 11:19:27;;;;;;;1.50;1.30;;;21.00;99.90;;;;;;5068319;28;20013;-72
2023/09/13 11:22:04;;;;;;;2.97;1.13;;;20.90;99.90;;;;;;5082366;28;20025;-73
2023/09/13 11:24:40;;;;;;;1.23;1.10;;;20.90;99.90;;;;;;5076227;28;20465;-73
2023/09/13 11:27:11;;;;;;;1.73;1.20;;;20.90;99.90;;;;;;5073855;28;20024;-72
2023/09/13 11:29:52;;;;;;;1.27;1.10;;;20.90;99.90;;;;;;5068926;28;20017;-72
2023/09/13 11:32:26;;;;;;;1.23;1.08;;;20.90;99.90;;;;;;5081640;28;20041;-72
2023/09/13 11:34:59;;;;;;;2.92;0.98;;;21.10;99.90;;;;;;5078853;28;20024;-73
2023/09/13 11:37:26;;;;;;;4.65;1.38;;;21.20;99.90;;;;;;5072238;28;20101;-73
2023/09/13 11:40:06;;;;;;;1.48;1.30;;;21.10;99.90;;;;;;5074662;28;20028;-73
2023/09/13 11:42:32;;;;;;;4.10;1.25;;;21.40;99.90;;;;;;5075998;28;20081;-73
2023/09/13 11:44:58;;;;;;;1.17;0.90;;;21.50;99.90;;;;;;5068857;28;20039;-72
2023/09/13 11:47:24;;;;;;;3.95;1.00;;;21.30;99.90;;;;;;5076018;28;20512;-71
2023/09/13 11:49:57;;;;;;;3.22;1.00;;;21.30;99.90;;;;;;5077613;28;20039;-72
2023/09/13 11:52:22;;;;;;;1.50;0.90;;;21.30;99.90;;;;;;5085792;28;20032;-71
2023/09/13 11:54:53;;;;;;;0.98;0.73;;;21.40;99.90;;;;;;5072759;28;20023;-72
2023/09/13 11:57:21;;;;;;;1.98;0.90;;;21.50;99.90;;;;;;5077706;28;20030;-72
2023/09/13 11:59:54;;;;;;;0.73;0.70;;;21.60;99.90;;;;;;5080471;28;20470;-72
2023/09/13 12:02:20;;;;;;;1.25;0.85;;;21.70;99.90;;;;;;5071263;28;20016;-71
2023/09/13 12:04:49;;;;;;;0.70;0.60;;;21.50;99.90;;;;;;5064936;28;20036;-71
2023/09/13 12:07:16;;;;;;;3.28;0.82;;;21.50;99.90;;;;;;5081984;28;20020;-71
2023/09/13 12:09:54;;;;;;;1.65;1.00;;;21.30;99.90;;;;;;5078396;28;20044;-71
2023/09/13 12:12:20;;;;;;;3.78;0.88;;;21.20;99.90;;;;;;5076312;28;20043;-70
2023/09/13 12:14:46;;;;;;;1.25;0.70;;;21.10;99.90;;;;;;5079900;28;20047;-72
2023/09/13 12:17:12;;;;;;;2.42;0.70;;;21.10;99.90;;;;;;5065338;28;20040;-72
2023/09/13 12:19:38;;;;;;;2.03;0.90;;;21.10;99.90;;;;;;5075558;28;20016;-72
2023/09/13 12:22:04;;;;;;;2.28;1.05;;;21.10;99.90;;;;;;5077307;28;20032;-72
2023/09/13 12:24:30;;;;;;;1.60;0.77;;;21.20;99.90;;;;;;5073412;28;20377;-71
2023/09/13 12:26:56;;;;;;;3.90;0.60;;;21.20;99.90;;;;;;5073956;28;20026;-71
2023/09/13 12:29:22;;;;;;;1.00;0.68;;;21.40;99.90;;;;;;5077966;28;20028;-71
2023/09/13 12:31:49;;;;;;;2.40;0.73;;;21.60;99.90;;;;;;5066866;28;20024;-71